Harrison, AR

7:50 PM CST on December 12, 2017 (GMT -0600)
Boone County | | Change Station

Elev 1362 ft 36.26 °N, 93.15 °W | Updated 57 minutes ago

Mostly Cloudy
Mostly Cloudy
34 °F
Feels Like 30 °F
N
5
Wind Variable Wind from WNW

Today
High -- | Low -- °F
--% Chance of Precip.
Yesterday
High -- | Low -- °F
Precip. -- in
Pressure 30.20 in
Visibility 10.0 miles
Clouds Clear
Windchill 30 °F
Dew Point 9 °F
Humidity 35%
Rainfall 0.00 in
Snow Depth Not available.
7:14 AM 4:58 PM
Waning Crescent, 23% visible
METAR KHRO 130053Z AUTO 29004KT 10SM CLR 01/M13 A3017 RMK AO2 SLP225 T00111128
Pressure 30.20 in
Visibility 10.0 miles
Clouds Clear
Windchill 30 °F
Dew Point 9 °F
Humidity 35%
Rainfall 0.00 in
Snow Depth Not available.
7:14 AM 4:58 PM
Waning Crescent, 23% visible
METAR KHRO 130053Z AUTO 29004KT 10SM CLR 01/M13 A3017 RMK AO2 SLP225 T00111128

Get Severe Weather Alerts

Thanks for signing up!

Be on the lookout for a verification email in your inbox.

You'll start receiving the daily forecast at 6 AM.

×

10-Day Weather Forecast

Almanac

Astronomy

Dec. 12, 2017 Rise Set
Actual Time
Civil Twilight
Nautical Twilight
Astronomical Twilight
Moon
Length of Visible Light
Length of Day
Tomorrow will be .
, % of the Moon is Illuminated

Today's Extremes

State Highs State Lows

Community

WunderPhotos

Category 6

Welcome to Category 6. This is the collective home for Weather Underground's featured writeups by Dr. Jeff Masters (right), Bob Henson (left), Chris Burt, and other regular contributors.

Nearby

Air Quality

  Air Quality AQ Index Pollutant
Not available.

Snow Depth

Station Depth Elevation

Earthquake Activity

City Distance Mag. Time & Date
Minimum magnitude displayed is 2.5.

Coastal Water Temperatures

Place Temperature

Stations

Nearby Weather Stations

Station Location Temp. Windchill Dew Point Humidity Wind Precip. Elev Updated Type
                   

Watches & Warnings

There are currently no watches in effect.